sensor_id;sensor_type;location;lat;lon;timestamp;temperature;humidity
15111;DHT22;7656;51.954;7.998;2023-12-07T00:00:40;4.10;99.90
15111;DHT22;7656;51.954;7.998;2023-12-07T00:05:01;4.00;99.90
15111;DHT22;7656;51.954;7.998;2023-12-07T00:09:22;3.90;99.90
15111;DHT22;7656;51.954;7.998;2023-12-07T00:13:43;3.80;99.90
15111;DHT22;7656;51.954;7.998;2023-12-07T00:18:05;3.70;99.90
15111;DHT22;7656;51.954;7.998;2023-12-07T00:22:26;3.60;99.90
15111;DHT22;7656;51.954;7.998;2023-12-07T00:26:49;3.50;99.90
15111;DHT22;7656;51.954;7.998;2023-12-07T00:31:10;3.50;99.90
15111;DHT22;7656;51.954;7.998;2023-12-07T00:35:31;3.40;99.90
15111;DHT22;7656;51.954;7.998;2023-12-07T00:39:52;3.40;99.90
15111;DHT22;7656;51.954;7.998;2023-12-07T00:44:14;3.30;99.90
15111;DHT22;7656;51.954;7.998;2023-12-07T00:48:35;3.30;99.90
15111;DHT22;7656;51.954;7.998;2023-12-07T00:52:56;3.20;99.90
15111;DHT22;7656;51.954;7.998;2023-12-07T00:57:17;3.20;99.90
15111;DHT22;7656;51.954;7.998;2023-12-07T01:01:38;3.10;99.90
15111;DHT22;7656;51.954;7.998;2023-12-07T01:05:59;2.90;99.90
15111;DHT22;7656;51.954;7.998;2023-12-07T01:10:20;2.70;99.90
15111;DHT22;7656;51.954;7.998;2023-12-07T01:14:41;2.60;99.90
15111;DHT22;7656;51.954;7.998;2023-12-07T01:19:02;2.60;99.90
15111;DHT22;7656;51.954;7.998;2023-12-07T01:23:23;2.60;99.90
15111;DHT22;7656;51.954;7.998;2023-12-07T01:27:44;2.60;99.90
15111;DHT22;7656;51.954;7.998;2023-12-07T01:32:06;2.60;99.90
15111;DHT22;7656;51.954;7.998;2023-12-07T01:36:27;2.50;99.90
15111;DHT22;7656;51.954;7.998;2023-12-07T01:40:48;2.50;99.90
15111;DHT22;7656;51.954;7.998;2023-12-07T01:45:09;2.40;99.90
15111;DHT22;7656;51.954;7.998;2023-12-07T01:49:30;2.50;99.90
15111;DHT22;7656;51.954;7.998;2023-12-07T01:53:52;2.50;99.90
15111;DHT22;7656;51.954;7.998;2023-12-07T01:58:14;2.30;99.90
15111;DHT22;7656;51.954;7.998;2023-12-07T02:02:38;2.30;99.90
15111;DHT22;7656;51.954;7.998;2023-12-07T02:07:00;2.40;99.90
15111;DHT22;7656;51.954;7.998;2023-12-07T02:11:22;2.50;99.90
15111;DHT22;7656;51.954;7.998;2023-12-07T02:15:43;2.50;99.90
15111;DHT22;7656;51.954;7.998;2023-12-07T02:20:28;2.40;99.90
15111;DHT22;7656;51.954;7.998;2023-12-07T02:29:29;2.60;99.90
15111;DHT22;7656;51.954;7.998;2023-12-07T02:33:50;2.60;99.90
15111;DHT22;7656;51.954;7.998;2023-12-07T02:38:11;2.60;99.90
15111;DHT22;7656;51.954;7.998;2023-12-07T02:42:33;2.70;99.90
15111;DHT22;7656;51.954;7.998;2023-12-07T02:46:54;2.80;99.90
15111;DHT22;7656;51.954;7.998;2023-12-07T02:51:15;2.70;99.90
15111;DHT22;7656;51.954;7.998;2023-12-07T02:55:36;2.50;99.90
15111;DHT22;7656;51.954;7.998;2023-12-07T02:59:57;2.60;99.90
15111;DHT22;7656;51.954;7.998;2023-12-07T03:04:18;2.70;99.90
15111;DHT22;7656;51.954;7.998;2023-12-07T03:08:39;2.60;99.90
15111;DHT22;7656;51.954;7.998;2023-12-07T03:13:00;2.40;99.90
15111;DHT22;7656;51.954;7.998;2023-12-07T03:17:21;2.30;99.90
15111;DHT22;7656;51.954;7.998;2023-12-07T03:21:42;2.40;99.90
15111;DHT22;7656;51.954;7.998;2023-12-07T03:26:03;2.60;99.90
15111;DHT22;7656;51.954;7.998;2023-12-07T03:30:25;2.60;99.90
15111;DHT22;7656;51.954;7.998;2023-12-07T03:34:46;2.60;99.90
15111;DHT22;7656;51.954;7.998;2023-12-07T03:39:07;2.30;99.90
15111;DHT22;7656;51.954;7.998;2023-12-07T03:43:28;2.20;99.90
15111;DHT22;7656;51.954;7.998;2023-12-07T03:47:49;2.20;99.90
15111;DHT22;7656;51.954;7.998;2023-12-07T03:52:10;2.40;99.90
15111;DHT22;7656;51.954;7.998;2023-12-07T03:56:33;2.60;99.90
15111;DHT22;7656;51.954;7.998;2023-12-07T04:00:54;2.40;99.90
15111;DHT22;7656;51.954;7.998;2023-12-07T04:05:15;2.30;99.90
15111;DHT22;7656;51.954;7.998;2023-12-07T04:09:36;2.30;99.90
15111;DHT22;7656;51.954;7.998;2023-12-07T04:13:57;2.50;99.90
15111;DHT22;7656;51.954;7.998;2023-12-07T04:18:18;2.70;99.90
15111;DHT22;7656;51.954;7.998;2023-12-07T04:22:39;2.70;99.90
15111;DHT22;7656;51.954;7.998;2023-12-07T04:27:00;2.40;99.90
15111;DHT22;7656;51.954;7.998;2023-12-07T04:31:21;2.50;99.90
15111;DHT22;7656;51.954;7.998;2023-12-07T04:35:42;2.50;99.90
15111;DHT22;7656;51.954;7.998;2023-12-07T04:40:04;2.40;99.90
15111;DHT22;7656;51.954;7.998;2023-12-07T04:44:25;2.30;99.90
15111;DHT22;7656;51.954;7.998;2023-12-07T04:48:47;2.30;99.90
15111;DHT22;7656;51.954;7.998;2023-12-07T04:53:08;2.50;99.90
15111;DHT22;7656;51.954;7.998;2023-12-07T04:57:29;2.30;99.90
15111;DHT22;7656;51.954;7.998;2023-12-07T05:01:50;2.50;99.90
15111;DHT22;7656;51.954;7.998;2023-12-07T05:06:11;2.70;99.90
15111;DHT22;7656;51.954;7.998;2023-12-07T05:10:32;2.80;99.90
15111;DHT22;7656;51.954;7.998;2023-12-07T05:14:53;3.00;99.90
15111;DHT22;7656;51.954;7.998;2023-12-07T05:19:14;3.20;99.90
15111;DHT22;7656;51.954;7.998;2023-12-07T05:23:35;3.40;99.90
15111;DHT22;7656;51.954;7.998;2023-12-07T05:27:56;3.40;99.90
15111;DHT22;7656;51.954;7.998;2023-12-07T05:32:18;3.50;99.90
15111;DHT22;7656;51.954;7.998;2023-12-07T05:36:39;3.60;99.90
15111;DHT22;7656;51.954;7.998;2023-12-07T05:41:00;3.60;99.90
15111;DHT22;7656;51.954;7.998;2023-12-07T05:45:21;3.50;99.90
15111;DHT22;7656;51.954;7.998;2023-12-07T05:49:43;3.40;99.90
15111;DHT22;7656;51.954;7.998;2023-12-07T05:54:04;3.40;99.90
15111;DHT22;7656;51.954;7.998;2023-12-07T05:58:25;3.30;99.90
15111;DHT22;7656;51.954;7.998;2023-12-07T06:02:46;3.50;99.90
15111;DHT22;7656;51.954;7.998;2023-12-07T06:07:07;3.40;99.90
15111;DHT22;7656;51.954;7.998;2023-12-07T06:11:28;3.40;99.90
15111;DHT22;7656;51.954;7.998;2023-12-07T06:15:49;3.20;99.90
15111;DHT22;7656;51.954;7.998;2023-12-07T06:20:10;3.30;99.90
15111;DHT22;7656;51.954;7.998;2023-12-07T06:24:32;3.10;99.90
15111;DHT22;7656;51.954;7.998;2023-12-07T06:28:53;3.10;99.90
15111;DHT22;7656;51.954;7.998;2023-12-07T06:33:14;3.10;99.90
15111;DHT22;7656;51.954;7.998;2023-12-07T06:37:35;3.10;99.90
15111;DHT22;7656;51.954;7.998;2023-12-07T06:41:56;3.20;99.90
15111;DHT22;7656;51.954;7.998;2023-12-07T06:46:17;3.30;99.90
15111;DHT22;7656;51.954;7.998;2023-12-07T06:50:38;3.40;99.90
15111;DHT22;7656;51.954;7.998;2023-12-07T06:54:59;3.10;99.90
15111;DHT22;7656;51.954;7.998;2023-12-07T06:59:20;3.10;99.90
15111;DHT22;7656;51.954;7.998;2023-12-07T07:03:41;3.30;99.90
15111;DHT22;7656;51.954;7.998;2023-12-07T07:08:03;3.30;99.90
15111;DHT22;7656;51.954;7.998;2023-12-07T07:12:24;3.40;99.90
15111;DHT22;7656;51.954;7.998;2023-12-07T07:16:45;3.50;99.90
15111;DHT22;7656;51.954;7.998;2023-12-07T07:21:07;3.60;99.90
15111;DHT22;7656;51.954;7.998;2023-12-07T07:25:28;3.70;99.90
15111;DHT22;7656;51.954;7.998;2023-12-07T07:29:49;3.70;99.90
15111;DHT22;7656;51.954;7.998;2023-12-07T07:34:10;3.70;99.90
15111;DHT22;7656;51.954;7.998;2023-12-07T07:38:31;3.80;99.90
15111;DHT22;7656;51.954;7.998;2023-12-07T07:42:52;3.40;99.90
15111;DHT22;7656;51.954;7.998;2023-12-07T07:47:13;3.10;99.90
15111;DHT22;7656;51.954;7.998;2023-12-07T07:51:34;3.20;99.90
15111;DHT22;7656;51.954;7.998;2023-12-07T07:55:55;3.40;99.90
15111;DHT22;7656;51.954;7.998;2023-12-07T08:00:16;3.40;99.90
15111;DHT22;7656;51.954;7.998;2023-12-07T08:04:38;3.50;99.90
15111;DHT22;7656;51.954;7.998;2023-12-07T08:08:59;3.50;99.90
15111;DHT22;7656;51.954;7.998;2023-12-07T08:13:20;3.40;99.90
15111;DHT22;7656;51.954;7.998;2023-12-07T08:17:42;3.40;99.90
15111;DHT22;7656;51.954;7.998;2023-12-07T08:22:03;3.50;99.90
15111;DHT22;7656;51.954;7.998;2023-12-07T08:26:24;3.60;99.90
15111;DHT22;7656;51.954;7.998;2023-12-07T08:30:48;3.60;99.90
15111;DHT22;7656;51.954;7.998;2023-12-07T08:35:09;3.60;99.90
15111;DHT22;7656;51.954;7.998;2023-12-07T08:39:30;3.50;99.90
15111;DHT22;7656;51.954;7.998;2023-12-07T08:43:51;3.60;99.90
15111;DHT22;7656;51.954;7.998;2023-12-07T08:48:12;3.70;99.90
15111;DHT22;7656;51.954;7.998;2023-12-07T08:52:34;3.20;99.90
15111;DHT22;7656;51.954;7.998;2023-12-07T08:56:56;2.30;99.90
15111;DHT22;7656;51.954;7.998;2023-12-07T09:01:17;2.10;99.90
15111;DHT22;7656;51.954;7.998;2023-12-07T09:05:38;2.40;99.90
15111;DHT22;7656;51.954;7.998;2023-12-07T09:09:59;2.80;99.90
15111;DHT22;7656;51.954;7.998;2023-12-07T09:14:20;3.00;99.90
15111;DHT22;7656;51.954;7.998;2023-12-07T09:18:42;3.30;99.90
15111;DHT22;7656;51.954;7.998;2023-12-07T09:23:05;3.50;99.90
15111;DHT22;7656;51.954;7.998;2023-12-07T09:27:26;3.80;99.90
15111;DHT22;7656;51.954;7.998;2023-12-07T09:31:47;3.90;99.90
15111;DHT22;7656;51.954;7.998;2023-12-07T09:36:09;4.10;99.90
15111;DHT22;7656;51.954;7.998;2023-12-07T09:40:32;4.20;99.90
15111;DHT22;7656;51.954;7.998;2023-12-07T09:44:54;3.70;99.90
15111;DHT22;7656;51.954;7.998;2023-12-07T09:49:16;4.00;99.90
15111;DHT22;7656;51.954;7.998;2023-12-07T09:53:39;3.90;99.90
15111;DHT22;7656;51.954;7.998;2023-12-07T09:58:06;3.50;99.90
15111;DHT22;7656;51.954;7.998;2023-12-07T10:02:27;2.80;99.90
15111;DHT22;7656;51.954;7.998;2023-12-07T10:06:49;2.60;99.90
15111;DHT22;7656;51.954;7.998;2023-12-07T10:11:11;2.60;99.90
15111;DHT22;7656;51.954;7.998;2023-12-07T10:15:36;3.50;99.90
15111;DHT22;7656;51.954;7.998;2023-12-07T10:20:09;3.20;99.90
15111;DHT22;7656;51.954;7.998;2023-12-07T10:24:32;2.80;99.90
15111;DHT22;7656;51.954;7.998;2023-12-07T10:28:53;2.60;99.90
15111;DHT22;7656;51.954;7.998;2023-12-07T10:33:15;2.70;99.90
15111;DHT22;7656;51.954;7.998;2023-12-07T10:37:36;2.70;99.90
15111;DHT22;7656;51.954;7.998;2023-12-07T10:42:00;3.20;99.90
15111;DHT22;7656;51.954;7.998;2023-12-07T10:46:23;3.90;99.90
15111;DHT22;7656;51.954;7.998;2023-12-07T10:50:46;4.50;99.90
15111;DHT22;7656;51.954;7.998;2023-12-07T10:55:16;4.50;99.90
15111;DHT22;7656;51.954;7.998;2023-12-07T10:59:39;4.20;99.90
15111;DHT22;7656;51.954;7.998;2023-12-07T11:04:03;4.90;99.90
15111;DHT22;7656;51.954;7.998;2023-12-07T11:08:38;5.60;99.90
15111;DHT22;7656;51.954;7.998;2023-12-07T11:13:11;5.60;99.90
15111;DHT22;7656;51.954;7.998;2023-12-07T11:17:55;5.70;99.90
15111;DHT22;7656;51.954;7.998;2023-12-07T11:22:16;5.00;99.90
15111;DHT22;7656;51.954;7.998;2023-12-07T11:26:38;4.30;99.90
15111;DHT22;7656;51.954;7.998;2023-12-07T11:31:02;4.10;99.90
15111;DHT22;7656;51.954;7.998;2023-12-07T11:35:23;4.20;99.90
15111;DHT22;7656;51.954;7.998;2023-12-07T11:39:45;4.30;99.90
15111;DHT22;7656;51.954;7.998;2023-12-07T11:44:06;4.60;99.90
15111;DHT22;7656;51.954;7.998;2023-12-07T11:48:27;5.30;99.90
15111;DHT22;7656;51.954;7.998;2023-12-07T11:52:48;6.40;99.90
15111;DHT22;7656;51.954;7.998;2023-12-07T11:57:09;6.80;99.90
15111;DHT22;7656;51.954;7.998;2023-12-07T12:01:30;7.20;99.90
15111;DHT22;7656;51.954;7.998;2023-12-07T12:05:52;6.70;99.90
15111;DHT22;7656;51.954;7.998;2023-12-07T12:10:13;6.40;99.90
15111;DHT22;7656;51.954;7.998;2023-12-07T12:14:34;6.50;99.90
15111;DHT22;7656;51.954;7.998;2023-12-07T12:18:55;6.20;99.90
15111;DHT22;7656;51.954;7.998;2023-12-07T12:23:17;6.50;99.90
15111;DHT22;7656;51.954;7.998;2023-12-07T12:27:40;6.60;99.90
15111;DHT22;7656;51.954;7.998;2023-12-07T12:32:04;6.40;99.90
15111;DHT22;7656;51.954;7.998;2023-12-07T12:36:26;6.70;99.90
15111;DHT22;7656;51.954;7.998;2023-12-07T12:40:50;7.10;99.90
15111;DHT22;7656;51.954;7.998;2023-12-07T12:45:12;7.30;99.90
15111;DHT22;7656;51.954;7.998;2023-12-07T12:49:38;8.10;99.90
15111;DHT22;7656;51.954;7.998;2023-12-07T12:54:00;8.70;99.90
15111;DHT22;7656;51.954;7.998;2023-12-07T12:58:22;9.40;99.90
15111;DHT22;7656;51.954;7.998;2023-12-07T13:02:43;9.90;99.90
15111;DHT22;7656;51.954;7.998;2023-12-07T13:07:04;9.90;99.90
15111;DHT22;7656;51.954;7.998;2023-12-07T13:11:25;9.20;99.90
15111;DHT22;7656;51.954;7.998;2023-12-07T13:15:47;9.30;99.90
15111;DHT22;7656;51.954;7.998;2023-12-07T13:20:09;8.40;99.90
15111;DHT22;7656;51.954;7.998;2023-12-07T13:24:36;8.20;99.90
15111;DHT22;7656;51.954;7.998;2023-12-07T13:28:57;8.10;99.90
15111;DHT22;7656;51.954;7.998;2023-12-07T13:33:18;7.80;99.90
15111;DHT22;7656;51.954;7.998;2023-12-07T13:37:39;8.50;99.90
15111;DHT22;7656;51.954;7.998;2023-12-07T13:42:00;8.90;99.90
15111;DHT22;7656;51.954;7.998;2023-12-07T13:46:21;9.60;99.90
15111;DHT22;7656;51.954;7.998;2023-12-07T13:50:43;10.20;99.90
15111;DHT22;7656;51.954;7.998;2023-12-07T13:55:05;10.10;99.90
15111;DHT22;7656;51.954;7.998;2023-12-07T13:59:26;9.60;99.90
15111;DHT22;7656;51.954;7.998;2023-12-07T14:03:47;9.20;99.90
15111;DHT22;7656;51.954;7.998;2023-12-07T14:08:09;8.50;99.90
15111;DHT22;7656;51.954;7.998;2023-12-07T14:12:30;8.00;99.90
15111;DHT22;7656;51.954;7.998;2023-12-07T14:16:54;7.50;99.90
15111;DHT22;7656;51.954;7.998;2023-12-07T14:21:19;7.30;99.90
15111;DHT22;7656;51.954;7.998;2023-12-07T14:25:41;7.10;99.90
15111;DHT22;7656;51.954;7.998;2023-12-07T14:30:07;6.40;99.90
15111;DHT22;7656;51.954;7.998;2023-12-07T14:34:31;6.00;99.90
15111;DHT22;7656;51.954;7.998;2023-12-07T14:38:52;5.90;99.90
15111;DHT22;7656;51.954;7.998;2023-12-07T14:43:13;5.80;99.90
15111;DHT22;7656;51.954;7.998;2023-12-07T14:47:34;5.80;99.90
15111;DHT22;7656;51.954;7.998;2023-12-07T14:51:56;5.90;99.90
15111;DHT22;7656;51.954;7.998;2023-12-07T14:56:19;5.90;99.90
15111;DHT22;7656;51.954;7.998;2023-12-07T15:00:42;5.80;99.90
15111;DHT22;7656;51.954;7.998;2023-12-07T15:05:03;5.60;99.90
15111;DHT22;7656;51.954;7.998;2023-12-07T15:09:25;5.30;99.90
15111;DHT22;7656;51.954;7.998;2023-12-07T15:13:46;5.10;99.90
15111;DHT22;7656;51.954;7.998;2023-12-07T15:18:07;5.00;99.90
15111;DHT22;7656;51.954;7.998;2023-12-07T15:22:28;4.90;99.90
15111;DHT22;7656;51.954;7.998;2023-12-07T15:26:49;4.80;99.90
15111;DHT22;7656;51.954;7.998;2023-12-07T15:31:10;4.40;99.90
15111;DHT22;7656;51.954;7.998;2023-12-07T15:35:32;3.90;99.90
15111;DHT22;7656;51.954;7.998;2023-12-07T15:39:53;3.60;99.90
15111;DHT22;7656;51.954;7.998;2023-12-07T15:44:14;3.20;99.90
15111;DHT22;7656;51.954;7.998;2023-12-07T15:48:35;3.20;99.90
15111;DHT22;7656;51.954;7.998;2023-12-07T15:52:56;3.10;99.90
15111;DHT22;7656;51.954;7.998;2023-12-07T15:57:17;3.10;99.90
15111;DHT22;7656;51.954;7.998;2023-12-07T16:01:38;2.90;99.90
15111;DHT22;7656;51.954;7.998;2023-12-07T16:05:59;2.70;99.90
15111;DHT22;7656;51.954;7.998;2023-12-07T16:10:22;2.70;99.90
15111;DHT22;7656;51.954;7.998;2023-12-07T16:14:43;2.60;99.90
15111;DHT22;7656;51.954;7.998;2023-12-07T16:19:04;2.50;99.90
15111;DHT22;7656;51.954;7.998;2023-12-07T16:23:25;2.60;99.90
15111;DHT22;7656;51.954;7.998;2023-12-07T16:27:46;2.60;99.90
15111;DHT22;7656;51.954;7.998;2023-12-07T16:32:08;2.60;99.90
15111;DHT22;7656;51.954;7.998;2023-12-07T16:36:29;2.90;99.90
15111;DHT22;7656;51.954;7.998;2023-12-07T16:40:50;3.10;99.90
15111;DHT22;7656;51.954;7.998;2023-12-07T16:45:11;3.20;99.90
15111;DHT22;7656;51.954;7.998;2023-12-07T16:49:35;3.20;99.90
15111;DHT22;7656;51.954;7.998;2023-12-07T16:53:57;2.90;99.90
15111;DHT22;7656;51.954;7.998;2023-12-07T16:58:18;2.70;99.90
15111;DHT22;7656;51.954;7.998;2023-12-07T17:02:39;2.20;99.90
15111;DHT22;7656;51.954;7.998;2023-12-07T17:07:01;2.00;99.90
15111;DHT22;7656;51.954;7.998;2023-12-07T17:11:22;1.90;99.90
15111;DHT22;7656;51.954;7.998;2023-12-07T17:15:44;1.80;99.90
15111;DHT22;7656;51.954;7.998;2023-12-07T17:20:05;1.60;99.90
15111;DHT22;7656;51.954;7.998;2023-12-07T17:24:30;1.70;99.90
15111;DHT22;7656;51.954;7.998;2023-12-07T17:28:51;1.60;99.90
15111;DHT22;7656;51.954;7.998;2023-12-07T17:33:12;1.50;99.90
15111;DHT22;7656;51.954;7.998;2023-12-07T17:37:33;1.50;99.90
15111;DHT22;7656;51.954;7.998;2023-12-07T17:41:54;1.50;99.90
15111;DHT22;7656;51.954;7.998;2023-12-07T17:46:15;1.40;99.90
15111;DHT22;7656;51.954;7.998;2023-12-07T17:50:36;1.40;99.90
15111;DHT22;7656;51.954;7.998;2023-12-07T17:54:58;1.30;99.90
15111;DHT22;7656;51.954;7.998;2023-12-07T17:59:19;1.30;99.90
15111;DHT22;7656;51.954;7.998;2023-12-07T18:03:42;1.20;99.90
15111;DHT22;7656;51.954;7.998;2023-12-07T18:08:03;1.10;99.90
15111;DHT22;7656;51.954;7.998;2023-12-07T18:12:25;1.00;99.90
15111;DHT22;7656;51.954;7.998;2023-12-07T18:16:46;1.00;99.90
15111;DHT22;7656;51.954;7.998;2023-12-07T18:21:07;1.00;99.90
15111;DHT22;7656;51.954;7.998;2023-12-07T18:25:29;0.90;99.90
15111;DHT22;7656;51.954;7.998;2023-12-07T18:29:50;0.90;99.90
15111;DHT22;7656;51.954;7.998;2023-12-07T18:34:11;0.90;99.90
15111;DHT22;7656;51.954;7.998;2023-12-07T18:38:33;0.90;99.90
15111;DHT22;7656;51.954;7.998;2023-12-07T18:42:54;0.80;99.90
15111;DHT22;7656;51.954;7.998;2023-12-07T18:47:15;0.80;99.90
15111;DHT22;7656;51.954;7.998;2023-12-07T18:51:37;0.80;99.90
15111;DHT22;7656;51.954;7.998;2023-12-07T18:55:58;0.80;99.90
15111;DHT22;7656;51.954;7.998;2023-12-07T19:00:19;0.80;99.90
15111;DHT22;7656;51.954;7.998;2023-12-07T19:04:42;0.80;99.90
15111;DHT22;7656;51.954;7.998;2023-12-07T19:09:03;0.80;99.90
15111;DHT22;7656;51.954;7.998;2023-12-07T19:13:27;0.80;99.90
15111;DHT22;7656;51.954;7.998;2023-12-07T19:17:48;0.70;99.90
15111;DHT22;7656;51.954;7.998;2023-12-07T19:22:09;0.70;99.90
15111;DHT22;7656;51.954;7.998;2023-12-07T19:26:30;0.70;99.90
15111;DHT22;7656;51.954;7.998;2023-12-07T19:30:52;0.70;99.90
15111;DHT22;7656;51.954;7.998;2023-12-07T19:35:13;0.70;99.90
15111;DHT22;7656;51.954;7.998;2023-12-07T19:39:34;0.80;99.90
15111;DHT22;7656;51.954;7.998;2023-12-07T19:43:55;0.70;99.90
15111;DHT22;7656;51.954;7.998;2023-12-07T19:48:17;0.70;99.90
15111;DHT22;7656;51.954;7.998;2023-12-07T19:52:38;0.70;99.90
15111;DHT22;7656;51.954;7.998;2023-12-07T19:56:59;0.60;99.90
15111;DHT22;7656;51.954;7.998;2023-12-07T20:01:21;0.60;99.90
15111;DHT22;7656;51.954;7.998;2023-12-07T20:05:42;0.60;99.90
15111;DHT22;7656;51.954;7.998;2023-12-07T20:10:04;0.60;99.90
15111;DHT22;7656;51.954;7.998;2023-12-07T20:14:26;0.50;99.90
15111;DHT22;7656;51.954;7.998;2023-12-07T20:18:47;0.40;99.90
15111;DHT22;7656;51.954;7.998;2023-12-07T20:23:08;0.30;99.90
15111;DHT22;7656;51.954;7.998;2023-12-07T20:27:30;0.40;99.90
15111;DHT22;7656;51.954;7.998;2023-12-07T20:31:52;0.50;99.90
15111;DHT22;7656;51.954;7.998;2023-12-07T20:36:13;0.60;99.90
15111;DHT22;7656;51.954;7.998;2023-12-07T20:40:34;0.70;99.90
15111;DHT22;7656;51.954;7.998;2023-12-07T20:44:55;0.70;99.90
15111;DHT22;7656;51.954;7.998;2023-12-07T20:49:16;0.80;99.90
15111;DHT22;7656;51.954;7.998;2023-12-07T20:53:38;0.90;99.90
15111;DHT22;7656;51.954;7.998;2023-12-07T20:57:59;1.00;99.90
15111;DHT22;7656;51.954;7.998;2023-12-07T21:02:20;0.90;99.90
15111;DHT22;7656;51.954;7.998;2023-12-07T21:06:41;0.80;99.90
15111;DHT22;7656;51.954;7.998;2023-12-07T21:11:03;0.60;99.90
15111;DHT22;7656;51.954;7.998;2023-12-07T21:15:24;0.60;99.90
15111;DHT22;7656;51.954;7.998;2023-12-07T21:19:46;0.50;99.90
15111;DHT22;7656;51.954;7.998;2023-12-07T21:24:07;0.50;99.90
15111;DHT22;7656;51.954;7.998;2023-12-07T21:28:28;0.60;99.90
15111;DHT22;7656;51.954;7.998;2023-12-07T21:32:49;0.70;99.90
15111;DHT22;7656;51.954;7.998;2023-12-07T21:37:10;0.60;99.90
15111;DHT22;7656;51.954;7.998;2023-12-07T21:41:31;0.60;99.90
15111;DHT22;7656;51.954;7.998;2023-12-07T21:45:52;0.70;99.90
15111;DHT22;7656;51.954;7.998;2023-12-07T21:50:13;0.60;99.90
15111;DHT22;7656;51.954;7.998;2023-12-07T21:54:34;0.70;99.90
15111;DHT22;7656;51.954;7.998;2023-12-07T21:58:55;0.70;99.90
15111;DHT22;7656;51.954;7.998;2023-12-07T22:03:16;0.70;99.90
15111;DHT22;7656;51.954;7.998;2023-12-07T22:07:37;0.70;99.90
15111;DHT22;7656;51.954;7.998;2023-12-07T22:11:59;0.70;99.90
15111;DHT22;7656;51.954;7.998;2023-12-07T22:16:20;0.80;99.90
15111;DHT22;7656;51.954;7.998;2023-12-07T22:20:41;0.70;99.90
15111;DHT22;7656;51.954;7.998;2023-12-07T22:25:03;0.70;99.90
15111;DHT22;7656;51.954;7.998;2023-12-07T22:29:24;0.80;99.90
15111;DHT22;7656;51.954;7.998;2023-12-07T22:33:45;0.80;99.90
15111;DHT22;7656;51.954;7.998;2023-12-07T22:38:06;0.90;99.90
15111;DHT22;7656;51.954;7.998;2023-12-07T22:42:27;0.90;99.90
15111;DHT22;7656;51.954;7.998;2023-12-07T22:46:48;0.80;99.90
15111;DHT22;7656;51.954;7.998;2023-12-07T22:51:09;1.00;99.90
15111;DHT22;7656;51.954;7.998;2023-12-07T22:55:30;1.00;99.90
15111;DHT22;7656;51.954;7.998;2023-12-07T22:59:51;0.90;99.90
15111;DHT22;7656;51.954;7.998;2023-12-07T23:04:12;1.00;99.90
15111;DHT22;7656;51.954;7.998;2023-12-07T23:08:33;1.00;99.90
15111;DHT22;7656;51.954;7.998;2023-12-07T23:12:54;1.00;99.90
15111;DHT22;7656;51.954;7.998;2023-12-07T23:17:15;1.00;99.90
15111;DHT22;7656;51.954;7.998;2023-12-07T23:21:37;1.00;99.90
15111;DHT22;7656;51.954;7.998;2023-12-07T23:25:58;1.00;99.90
15111;DHT22;7656;51.954;7.998;2023-12-07T23:30:20;1.00;99.90
15111;DHT22;7656;51.954;7.998;2023-12-07T23:34:41;1.00;99.90
15111;DHT22;7656;51.954;7.998;2023-12-07T23:39:02;1.00;99.90
15111;DHT22;7656;51.954;7.998;2023-12-07T23:43:25;1.10;99.90
15111;DHT22;7656;51.954;7.998;2023-12-07T23:47:46;1.00;99.90
15111;DHT22;7656;51.954;7.998;2023-12-07T23:52:07;1.00;99.90
15111;DHT22;7656;51.954;7.998;2023-12-07T23:56:28;1.10;99.90
